NCAR-RAP Real-Time Weather Data

Output produced by METARs form (06 May 2021  16:27 UTC)
found at http://weather.rap.ucar.edu/surface/
 
KLOU 061553Z 24006KT 10SM SCT110 16/03 A3015 RMK AO2 SLP210 T01610033
KLOU 061453Z 24005KT 10SM CLR 15/03 A3016 RMK AO2 SLP211 T01500033 58002
KLOU 061353Z 18003KT 10SM CLR 13/04 A3017 RMK AO2 SLP217 T01280044
KLOU 061253Z 00000KT 10SM CLR 10/06 A3017 RMK AO2 SLP216 T01000056
KLOU 061153Z 00000KT 10SM CLR 08/04 A3017 RMK AO2 SLP214 T00780044 10100 20044 51008
KLOU 061053Z 00000KT 10SM CLR 05/03 A3016 RMK AO2 SLP214 T00500028
KLOU 060953Z AUTO 00000KT 10SM CLR 05/03 A3015 RMK AO2 SLP208 T00500028
KLOU 060853Z AUTO 32003KT 10SM CLR 06/03 A3014 RMK AO2 SLP206 T00560028 55005
KLOU 060753Z AUTO 00000KT 10SM CLR 07/03 A3013 RMK AO2 SLP204 T00670033
KLOU 060653Z AUTO 00000KT 10SM CLR 09/03 A3014 RMK AO2 SLP206 T00890028
KLOU 060553Z AUTO 34004KT 10SM CLR 09/04 A3015 RMK AO2 SLP211 T00940039 10167 20078 53003
KLOU 060453Z AUTO 35004KT 10SM CLR 08/04 A3015 RMK AO2 SLP210 T00830044 401940078
KLOU 060353Z AUTO 31003KT 10SM CLR 09/04 A3015 RMK AO2 SLP208 T00890039
KLOU 060253Z AUTO 35003KT 10SM CLR 12/02 A3015 RMK AO2 SLP208 T01220022 53018
KLOU 060153Z AUTO 01004KT 10SM CLR 13/02 A3013 RMK AO2 SLP201 T01330017
KLOU 060053Z 02004KT 10SM CLR 14/02 A3011 RMK AO2 SLP195 T01440022